sensor_id;sensor_type;location;lat;lon;timestamp;P1;durP1;ratioP1;P2;durP2;ratioP2
26086;SDS011;13851;43.434;28.338;2022-12-07T00:01:22;4.35;;;2.50;;
26086;SDS011;13851;43.434;28.338;2022-12-07T00:03:51;4.68;;;2.45;;
26086;SDS011;13851;43.434;28.338;2022-12-07T00:06:18;5.38;;;2.42;;
26086;SDS011;13851;43.434;28.338;2022-12-07T00:08:44;4.20;;;2.67;;
26086;SDS011;13851;43.434;28.338;2022-12-07T00:11:12;6.07;;;2.40;;
26086;SDS011;13851;43.434;28.338;2022-12-07T00:13:45;5.53;;;2.58;;
26086;SDS011;13851;43.434;28.338;2022-12-07T00:16:13;5.55;;;2.72;;
26086;SDS011;13851;43.434;28.338;2022-12-07T00:18:43;5.75;;;2.78;;
26086;SDS011;13851;43.434;28.338;2022-12-07T00:21:10;4.85;;;2.10;;
26086;SDS011;13851;43.434;28.338;2022-12-07T00:23:47;7.45;;;2.50;;
26086;SDS011;13851;43.434;28.338;2022-12-07T00:26:19;5.22;;;2.53;;
26086;SDS011;13851;43.434;28.338;2022-12-07T00:28:49;4.05;;;2.50;;
26086;SDS011;13851;43.434;28.338;2022-12-07T00:31:20;7.57;;;2.53;;
26086;SDS011;13851;43.434;28.338;2022-12-07T00:33:47;7.60;;;2.90;;
26086;SDS011;13851;43.434;28.338;2022-12-07T00:36:18;8.73;;;3.20;;
26086;SDS011;13851;43.434;28.338;2022-12-07T00:38:45;8.77;;;2.97;;
26086;SDS011;13851;43.434;28.338;2022-12-07T00:41:12;7.80;;;3.17;;
26086;SDS011;13851;43.434;28.338;2022-12-07T00:43:51;6.47;;;2.93;;
26086;SDS011;13851;43.434;28.338;2022-12-07T00:46:19;9.35;;;3.42;;
26086;SDS011;13851;43.434;28.338;2022-12-07T00:48:46;3.60;;;2.67;;
26086;SDS011;13851;43.434;28.338;2022-12-07T00:51:15;8.50;;;2.80;;
26086;SDS011;13851;43.434;28.338;2022-12-07T00:53:42;4.45;;;2.45;;
26086;SDS011;13851;43.434;28.338;2022-12-07T00:56:10;5.35;;;3.00;;
26086;SDS011;13851;43.434;28.338;2022-12-07T00:58:38;4.95;;;2.70;;
26086;SDS011;13851;43.434;28.338;2022-12-07T01:01:05;7.13;;;2.60;;
26086;SDS011;13851;43.434;28.338;2022-12-07T01:03:32;6.97;;;3.03;;
26086;SDS011;13851;43.434;28.338;2022-12-07T01:05:58;8.15;;;2.90;;
26086;SDS011;13851;43.434;28.338;2022-12-07T01:08:24;4.70;;;2.40;;
26086;SDS011;13851;43.434;28.338;2022-12-07T01:11:05;6.20;;;2.70;;
26086;SDS011;13851;43.434;28.338;2022-12-07T01:13:33;6.45;;;2.58;;
26086;SDS011;13851;43.434;28.338;2022-12-07T01:16:01;5.78;;;2.80;;
26086;SDS011;13851;43.434;28.338;2022-12-07T01:18:29;4.22;;;2.63;;
26086;SDS011;13851;43.434;28.338;2022-12-07T01:21:00;4.60;;;2.50;;
26086;SDS011;13851;43.434;28.338;2022-12-07T01:23:27;5.18;;;3.35;;
26086;SDS011;13851;43.434;28.338;2022-12-07T01:25:59;7.70;;;3.63;;
26086;SDS011;13851;43.434;28.338;2022-12-07T01:28:32;5.47;;;2.55;;
26086;SDS011;13851;43.434;28.338;2022-12-07T01:31:05;5.93;;;2.63;;
26086;SDS011;13851;43.434;28.338;2022-12-07T01:33:36;8.38;;;3.08;;
26086;SDS011;13851;43.434;28.338;2022-12-07T01:36:05;6.18;;;2.55;;
26086;SDS011;13851;43.434;28.338;2022-12-07T01:38:54;7.07;;;2.97;;
26086;SDS011;13851;43.434;28.338;2022-12-07T01:41:22;6.97;;;2.92;;
26086;SDS011;13851;43.434;28.338;2022-12-07T01:46:44;8.63;;;3.35;;
26086;SDS011;13851;43.434;28.338;2022-12-07T01:49:20;7.40;;;3.30;;
26086;SDS011;13851;43.434;28.338;2022-12-07T01:52:17;7.30;;;2.85;;
26086;SDS011;13851;43.434;28.338;2022-12-07T01:54:57;6.95;;;3.13;;
26086;SDS011;13851;43.434;28.338;2022-12-07T01:57:26;5.90;;;2.80;;
26086;SDS011;13851;43.434;28.338;2022-12-07T01:59:52;7.72;;;3.25;;
26086;SDS011;13851;43.434;28.338;2022-12-07T02:02:28;4.20;;;2.60;;
26086;SDS011;13851;43.434;28.338;2022-12-07T02:04:59;5.45;;;2.72;;
26086;SDS011;13851;43.434;28.338;2022-12-07T02:07:26;5.63;;;3.17;;
26086;SDS011;13851;43.434;28.338;2022-12-07T02:09:52;5.53;;;2.50;;
26086;SDS011;13851;43.434;28.338;2022-12-07T02:12:18;7.13;;;2.95;;
26086;SDS011;13851;43.434;28.338;2022-12-07T02:14:45;10.13;;;3.60;;
26086;SDS011;13851;43.434;28.338;2022-12-07T02:28:27;8.32;;;3.50;;
26086;SDS011;13851;43.434;28.338;2022-12-07T02:30:59;8.63;;;4.00;;
26086;SDS011;13851;43.434;28.338;2022-12-07T02:33:33;9.43;;;4.13;;
26086;SDS011;13851;43.434;28.338;2022-12-07T02:39:07;7.28;;;3.80;;
26086;SDS011;13851;43.434;28.338;2022-12-07T02:41:35;8.80;;;4.10;;
26086;SDS011;13851;43.434;28.338;2022-12-07T02:44:10;7.97;;;3.90;;
26086;SDS011;13851;43.434;28.338;2022-12-07T02:46:41;9.57;;;3.85;;
26086;SDS011;13851;43.434;28.338;2022-12-07T02:49:09;6.15;;;3.70;;
26086;SDS011;13851;43.434;28.338;2022-12-07T02:51:40;7.60;;;4.05;;
26086;SDS011;13851;43.434;28.338;2022-12-07T02:54:14;7.97;;;3.92;;
26086;SDS011;13851;43.434;28.338;2022-12-07T03:16:35;9.55;;;3.75;;
26086;SDS011;13851;43.434;28.338;2022-12-07T03:21:35;12.73;;;4.90;;
26086;SDS011;13851;43.434;28.338;2022-12-07T03:24:05;7.95;;;4.30;;
26086;SDS011;13851;43.434;28.338;2022-12-07T03:26:36;7.18;;;3.80;;
26086;SDS011;13851;43.434;28.338;2022-12-07T03:29:07;8.38;;;3.78;;
26086;SDS011;13851;43.434;28.338;2022-12-07T03:31:43;15.80;;;11.93;;
26086;SDS011;13851;43.434;28.338;2022-12-07T03:34:24;12.40;;;10.52;;
26086;SDS011;13851;43.434;28.338;2022-12-07T03:37:00;8.50;;;5.43;;
26086;SDS011;13851;43.434;28.338;2022-12-07T03:39:35;6.97;;;4.25;;
26086;SDS011;13851;43.434;28.338;2022-12-07T03:42:06;7.22;;;4.30;;
26086;SDS011;13851;43.434;28.338;2022-12-07T03:44:35;9.95;;;6.47;;
26086;SDS011;13851;43.434;28.338;2022-12-07T03:50:07;13.02;;;7.53;;
26086;SDS011;13851;43.434;28.338;2022-12-07T03:52:55;5.30;;;4.07;;
26086;SDS011;13851;43.434;28.338;2022-12-07T03:55:29;8.65;;;4.47;;
26086;SDS011;13851;43.434;28.338;2022-12-07T03:58:02;9.68;;;3.58;;
26086;SDS011;13851;43.434;28.338;2022-12-07T04:00:34;5.78;;;3.65;;
26086;SDS011;13851;43.434;28.338;2022-12-07T04:03:02;5.90;;;3.95;;
26086;SDS011;13851;43.434;28.338;2022-12-07T04:05:28;7.15;;;3.95;;
26086;SDS011;13851;43.434;28.338;2022-12-07T04:07:59;6.13;;;3.53;;
26086;SDS011;13851;43.434;28.338;2022-12-07T04:10:27;7.60;;;4.22;;
26086;SDS011;13851;43.434;28.338;2022-12-07T04:12:53;6.40;;;3.70;;
26086;SDS011;13851;43.434;28.338;2022-12-07T04:15:19;6.78;;;3.97;;
26086;SDS011;13851;43.434;28.338;2022-12-07T04:17:45;7.32;;;3.22;;
26086;SDS011;13851;43.434;28.338;2022-12-07T04:20:10;5.13;;;3.28;;
26086;SDS011;13851;43.434;28.338;2022-12-07T04:22:36;6.22;;;4.00;;
26086;SDS011;13851;43.434;28.338;2022-12-07T04:25:02;7.75;;;3.92;;
26086;SDS011;13851;43.434;28.338;2022-12-07T04:27:27;5.50;;;4.32;;
26086;SDS011;13851;43.434;28.338;2022-12-07T04:29:53;5.95;;;3.67;;
26086;SDS011;13851;43.434;28.338;2022-12-07T04:32:20;8.23;;;4.03;;
26086;SDS011;13851;43.434;28.338;2022-12-07T04:34:46;6.85;;;4.63;;
26086;SDS011;13851;43.434;28.338;2022-12-07T04:37:15;5.88;;;3.45;;
26086;SDS011;13851;43.434;28.338;2022-12-07T04:39:41;4.60;;;4.15;;
26086;SDS011;13851;43.434;28.338;2022-12-07T04:42:06;4.45;;;3.58;;
26086;SDS011;13851;43.434;28.338;2022-12-07T04:44:32;6.15;;;3.85;;
26086;SDS011;13851;43.434;28.338;2022-12-07T04:46:59;8.32;;;5.22;;
26086;SDS011;13851;43.434;28.338;2022-12-07T04:49:25;11.40;;;6.32;;
26086;SDS011;13851;43.434;28.338;2022-12-07T04:51:51;7.97;;;4.25;;
26086;SDS011;13851;43.434;28.338;2022-12-07T04:54:16;8.32;;;4.55;;
26086;SDS011;13851;43.434;28.338;2022-12-07T04:56:44;6.07;;;4.28;;
26086;SDS011;13851;43.434;28.338;2022-12-07T04:59:11;8.45;;;4.95;;
26086;SDS011;13851;43.434;28.338;2022-12-07T05:01:37;7.45;;;5.47;;
26086;SDS011;13851;43.434;28.338;2022-12-07T05:04:05;7.43;;;5.00;;
26086;SDS011;13851;43.434;28.338;2022-12-07T05:06:32;7.63;;;4.75;;
26086;SDS011;13851;43.434;28.338;2022-12-07T05:08:58;5.90;;;5.28;;
26086;SDS011;13851;43.434;28.338;2022-12-07T05:11:23;7.50;;;6.72;;
26086;SDS011;13851;43.434;28.338;2022-12-07T05:14:14;7.07;;;6.40;;
26086;SDS011;13851;43.434;28.338;2022-12-07T05:16:40;6.65;;;5.80;;
26086;SDS011;13851;43.434;28.338;2022-12-07T05:19:12;6.03;;;5.10;;
26086;SDS011;13851;43.434;28.338;2022-12-07T05:21:40;6.70;;;5.68;;
26086;SDS011;13851;43.434;28.338;2022-12-07T05:24:07;8.50;;;5.25;;
26086;SDS011;13851;43.434;28.338;2022-12-07T05:26:35;7.32;;;4.60;;
26086;SDS011;13851;43.434;28.338;2022-12-07T05:29:03;12.98;;;5.32;;
26086;SDS011;13851;43.434;28.338;2022-12-07T05:31:29;6.13;;;4.93;;
26086;SDS011;13851;43.434;28.338;2022-12-07T05:33:55;6.65;;;5.25;;
26086;SDS011;13851;43.434;28.338;2022-12-07T05:36:20;8.00;;;5.43;;
26086;SDS011;13851;43.434;28.338;2022-12-07T05:38:46;7.20;;;5.53;;
26086;SDS011;13851;43.434;28.338;2022-12-07T05:41:16;7.93;;;5.10;;
26086;SDS011;13851;43.434;28.338;2022-12-07T05:44:01;9.25;;;6.53;;
26086;SDS011;13851;43.434;28.338;2022-12-07T05:46:27;17.60;;;13.85;;
26086;SDS011;13851;43.434;28.338;2022-12-07T05:48:52;37.85;;;30.50;;
26086;SDS011;13851;43.434;28.338;2022-12-07T05:51:18;24.00;;;19.25;;
26086;SDS011;13851;43.434;28.338;2022-12-07T05:53:43;12.75;;;10.05;;
26086;SDS011;13851;43.434;28.338;2022-12-07T05:56:12;7.85;;;6.95;;
26086;SDS011;13851;43.434;28.338;2022-12-07T05:58:40;8.68;;;7.03;;
26086;SDS011;13851;43.434;28.338;2022-12-07T06:01:24;14.50;;;9.48;;
26086;SDS011;13851;43.434;28.338;2022-12-07T06:03:50;10.45;;;8.77;;
26086;SDS011;13851;43.434;28.338;2022-12-07T06:06:15;10.02;;;8.63;;
26086;SDS011;13851;43.434;28.338;2022-12-07T06:08:41;10.55;;;8.30;;
26086;SDS011;13851;43.434;28.338;2022-12-07T06:11:06;8.90;;;7.65;;
26086;SDS011;13851;43.434;28.338;2022-12-07T06:13:52;10.13;;;8.30;;
26086;SDS011;13851;43.434;28.338;2022-12-07T06:16:18;11.00;;;8.45;;
26086;SDS011;13851;43.434;28.338;2022-12-07T06:18:46;10.15;;;9.07;;
26086;SDS011;13851;43.434;28.338;2022-12-07T06:23:40;9.38;;;8.30;;
26086;SDS011;13851;43.434;28.338;2022-12-07T06:26:08;10.80;;;8.20;;
26086;SDS011;13851;43.434;28.338;2022-12-07T06:28:34;8.40;;;7.53;;
26086;SDS011;13851;43.434;28.338;2022-12-07T06:31:01;11.13;;;9.30;;
26086;SDS011;13851;43.434;28.338;2022-12-07T06:33:28;11.32;;;8.77;;
26086;SDS011;13851;43.434;28.338;2022-12-07T06:35:54;11.02;;;7.97;;
26086;SDS011;13851;43.434;28.338;2022-12-07T06:38:20;6.93;;;6.22;;
26086;SDS011;13851;43.434;28.338;2022-12-07T06:40:46;12.40;;;8.48;;
26086;SDS011;13851;43.434;28.338;2022-12-07T06:43:14;12.73;;;11.05;;
26086;SDS011;13851;43.434;28.338;2022-12-07T06:45:40;7.90;;;6.50;;
26086;SDS011;13851;43.434;28.338;2022-12-07T06:48:06;7.15;;;6.43;;
26086;SDS011;13851;43.434;28.338;2022-12-07T06:50:34;6.93;;;5.50;;
26086;SDS011;13851;43.434;28.338;2022-12-07T06:53:03;10.63;;;6.63;;
26086;SDS011;13851;43.434;28.338;2022-12-07T06:55:28;6.55;;;5.82;;
26086;SDS011;13851;43.434;28.338;2022-12-07T06:57:54;6.13;;;5.50;;
26086;SDS011;13851;43.434;28.338;2022-12-07T07:00:19;10.70;;;6.72;;
26086;SDS011;13851;43.434;28.338;2022-12-07T07:02:45;6.80;;;6.20;;
26086;SDS011;13851;43.434;28.338;2022-12-07T07:05:11;7.28;;;6.57;;
26086;SDS011;13851;43.434;28.338;2022-12-07T07:07:36;7.97;;;7.18;;
26086;SDS011;13851;43.434;28.338;2022-12-07T07:10:05;8.27;;;7.05;;
26086;SDS011;13851;43.434;28.338;2022-12-07T07:12:31;8.68;;;7.28;;
26086;SDS011;13851;43.434;28.338;2022-12-07T07:14:56;8.68;;;7.78;;
26086;SDS011;13851;43.434;28.338;2022-12-07T07:17:22;10.95;;;8.60;;
26086;SDS011;13851;43.434;28.338;2022-12-07T07:19:47;12.50;;;8.88;;
26086;SDS011;13851;43.434;28.338;2022-12-07T07:22:13;9.32;;;8.43;;
26086;SDS011;13851;43.434;28.338;2022-12-07T07:24:38;10.55;;;9.52;;
26086;SDS011;13851;43.434;28.338;2022-12-07T07:27:04;8.95;;;8.02;;
26086;SDS011;13851;43.434;28.338;2022-12-07T07:29:29;10.55;;;8.05;;
26086;SDS011;13851;43.434;28.338;2022-12-07T07:31:54;10.57;;;9.27;;
26086;SDS011;13851;43.434;28.338;2022-12-07T07:34:20;9.73;;;8.80;;
26086;SDS011;13851;43.434;28.338;2022-12-07T07:36:45;12.73;;;8.32;;
26086;SDS011;13851;43.434;28.338;2022-12-07T07:39:11;9.93;;;8.93;;
26086;SDS011;13851;43.434;28.338;2022-12-07T07:41:37;11.00;;;9.90;;
26086;SDS011;13851;43.434;28.338;2022-12-07T07:44:03;10.43;;;9.43;;
26086;SDS011;13851;43.434;28.338;2022-12-07T07:46:29;13.73;;;9.57;;
26086;SDS011;13851;43.434;28.338;2022-12-07T07:48:54;15.48;;;11.35;;
26086;SDS011;13851;43.434;28.338;2022-12-07T07:51:20;12.27;;;10.98;;
26086;SDS011;13851;43.434;28.338;2022-12-07T07:53:45;11.30;;;9.20;;
26086;SDS011;13851;43.434;28.338;2022-12-07T07:56:11;13.15;;;9.20;;
26086;SDS011;13851;43.434;28.338;2022-12-07T07:58:37;13.00;;;9.80;;
26086;SDS011;13851;43.434;28.338;2022-12-07T08:01:09;11.02;;;9.90;;
26086;SDS011;13851;43.434;28.338;2022-12-07T08:03:35;11.95;;;9.27;;
26086;SDS011;13851;43.434;28.338;2022-12-07T08:06:04;11.63;;;9.38;;
26086;SDS011;13851;43.434;28.338;2022-12-07T08:08:30;11.43;;;9.73;;
26086;SDS011;13851;43.434;28.338;2022-12-07T08:10:56;9.70;;;8.75;;
26086;SDS011;13851;43.434;28.338;2022-12-07T08:13:25;12.80;;;10.00;;
26086;SDS011;13851;43.434;28.338;2022-12-07T08:15:51;12.25;;;10.32;;
26086;SDS011;13851;43.434;28.338;2022-12-07T08:18:16;12.82;;;11.27;;
26086;SDS011;13851;43.434;28.338;2022-12-07T08:20:42;20.08;;;14.15;;
26086;SDS011;13851;43.434;28.338;2022-12-07T08:23:10;12.40;;;10.57;;
26086;SDS011;13851;43.434;28.338;2022-12-07T08:25:36;14.95;;;9.77;;
26086;SDS011;13851;43.434;28.338;2022-12-07T08:28:02;13.75;;;11.18;;
26086;SDS011;13851;43.434;28.338;2022-12-07T08:30:28;12.60;;;9.65;;
26086;SDS011;13851;43.434;28.338;2022-12-07T08:32:55;15.45;;;12.35;;
26086;SDS011;13851;43.434;28.338;2022-12-07T08:35:23;14.45;;;11.82;;
26086;SDS011;13851;43.434;28.338;2022-12-07T08:37:49;11.15;;;9.85;;
26086;SDS011;13851;43.434;28.338;2022-12-07T08:40:15;11.45;;;10.02;;
26086;SDS011;13851;43.434;28.338;2022-12-07T08:42:47;13.57;;;11.35;;
26086;SDS011;13851;43.434;28.338;2022-12-07T08:45:14;12.88;;;10.07;;
26086;SDS011;13851;43.434;28.338;2022-12-07T08:47:42;12.82;;;11.52;;
26086;SDS011;13851;43.434;28.338;2022-12-07T08:50:11;12.70;;;10.57;;
26086;SDS011;13851;43.434;28.338;2022-12-07T08:52:40;12.57;;;10.95;;
26086;SDS011;13851;43.434;28.338;2022-12-07T08:55:08;12.52;;;11.13;;
26086;SDS011;13851;43.434;28.338;2022-12-07T08:57:38;12.02;;;10.02;;
26086;SDS011;13851;43.434;28.338;2022-12-07T09:00:07;16.30;;;11.43;;
26086;SDS011;13851;43.434;28.338;2022-12-07T09:02:34;18.05;;;12.25;;
26086;SDS011;13851;43.434;28.338;2022-12-07T09:04:59;13.32;;;11.15;;
26086;SDS011;13851;43.434;28.338;2022-12-07T09:07:25;12.20;;;11.00;;
26086;SDS011;13851;43.434;28.338;2022-12-07T09:09:51;13.52;;;10.23;;
26086;SDS011;13851;43.434;28.338;2022-12-07T09:12:17;12.10;;;10.48;;
26086;SDS011;13851;43.434;28.338;2022-12-07T09:14:42;12.90;;;11.27;;
26086;SDS011;13851;43.434;28.338;2022-12-07T09:17:09;14.05;;;11.25;;
26086;SDS011;13851;43.434;28.338;2022-12-07T09:19:35;12.20;;;10.10;;
26086;SDS011;13851;43.434;28.338;2022-12-07T09:22:02;16.95;;;11.73;;
26086;SDS011;13851;43.434;28.338;2022-12-07T09:24:29;13.23;;;10.38;;
26086;SDS011;13851;43.434;28.338;2022-12-07T09:26:57;12.88;;;11.43;;
26086;SDS011;13851;43.434;28.338;2022-12-07T09:29:23;14.48;;;10.95;;
26086;SDS011;13851;43.434;28.338;2022-12-07T09:31:49;12.93;;;11.18;;
26086;SDS011;13851;43.434;28.338;2022-12-07T09:34:15;13.23;;;10.75;;
26086;SDS011;13851;43.434;28.338;2022-12-07T09:36:42;15.05;;;11.20;;
26086;SDS011;13851;43.434;28.338;2022-12-07T09:39:08;14.25;;;12.15;;
26086;SDS011;13851;43.434;28.338;2022-12-07T09:41:33;14.40;;;11.10;;
26086;SDS011;13851;43.434;28.338;2022-12-07T09:44:05;13.80;;;11.23;;
26086;SDS011;13851;43.434;28.338;2022-12-07T09:46:35;12.10;;;10.80;;
26086;SDS011;13851;43.434;28.338;2022-12-07T09:49:03;13.00;;;11.10;;
26086;SDS011;13851;43.434;28.338;2022-12-07T09:51:30;15.07;;;10.55;;
26086;SDS011;13851;43.434;28.338;2022-12-07T09:53:56;11.45;;;10.10;;
26086;SDS011;13851;43.434;28.338;2022-12-07T09:56:23;15.27;;;12.00;;
26086;SDS011;13851;43.434;28.338;2022-12-07T09:58:49;15.07;;;11.73;;
26086;SDS011;13851;43.434;28.338;2022-12-07T10:01:27;11.65;;;10.50;;
26086;SDS011;13851;43.434;28.338;2022-12-07T10:06:36;15.25;;;10.70;;
26086;SDS011;13851;43.434;28.338;2022-12-07T10:09:07;13.13;;;10.43;;
26086;SDS011;13851;43.434;28.338;2022-12-07T10:15:15;14.07;;;10.13;;
26086;SDS011;13851;43.434;28.338;2022-12-07T10:17:35;12.60;;;9.85;;
26086;SDS011;13851;43.434;28.338;2022-12-07T10:22:38;11.43;;;10.23;;
26086;SDS011;13851;43.434;28.338;2022-12-07T10:25:20;14.27;;;12.60;;
26086;SDS011;13851;43.434;28.338;2022-12-07T10:27:57;15.68;;;10.60;;
26086;SDS011;13851;43.434;28.338;2022-12-07T10:31:02;13.88;;;8.73;;
26086;SDS011;13851;43.434;28.338;2022-12-07T10:33:57;12.13;;;9.18;;
26086;SDS011;13851;43.434;28.338;2022-12-07T10:36:25;11.50;;;9.63;;
26086;SDS011;13851;43.434;28.338;2022-12-07T10:39:10;14.80;;;10.00;;
26086;SDS011;13851;43.434;28.338;2022-12-07T10:44:30;10.85;;;8.23;;
26086;SDS011;13851;43.434;28.338;2022-12-07T10:47:13;10.00;;;8.77;;
26086;SDS011;13851;43.434;28.338;2022-12-07T10:53:21;9.95;;;8.95;;
26086;SDS011;13851;43.434;28.338;2022-12-07T11:15:59;14.50;;;13.00;;
26086;SDS011;13851;43.434;28.338;2022-12-07T11:21:18;15.85;;;11.98;;
26086;SDS011;13851;43.434;28.338;2022-12-07T11:29:36;13.85;;;11.10;;
26086;SDS011;13851;43.434;28.338;2022-12-07T11:35:22;13.20;;;11.80;;
26086;SDS011;13851;43.434;28.338;2022-12-07T11:37:31;16.55;;;12.38;;
26086;SDS011;13851;43.434;28.338;2022-12-07T11:40:00;13.93;;;12.35;;
26086;SDS011;13851;43.434;28.338;2022-12-07T11:42:52;14.50;;;13.10;;
26086;SDS011;13851;43.434;28.338;2022-12-07T11:45:29;17.38;;;13.70;;
26086;SDS011;13851;43.434;28.338;2022-12-07T11:48:00;15.25;;;13.65;;
26086;SDS011;13851;43.434;28.338;2022-12-07T11:50:36;15.93;;;13.02;;
26086;SDS011;13851;43.434;28.338;2022-12-07T12:06:47;15.60;;;13.52;;
26086;SDS011;13851;43.434;28.338;2022-12-07T12:09:14;13.50;;;12.10;;
26086;SDS011;13851;43.434;28.338;2022-12-07T12:20:03;14.10;;;12.45;;
26086;SDS011;13851;43.434;28.338;2022-12-07T12:22:55;15.55;;;14.05;;
26086;SDS011;13851;43.434;28.338;2022-12-07T12:25:50;20.35;;;18.05;;
26086;SDS011;13851;43.434;28.338;2022-12-07T12:28:31;15.85;;;13.00;;
26086;SDS011;13851;43.434;28.338;2022-12-07T12:33:46;17.00;;;13.82;;
26086;SDS011;13851;43.434;28.338;2022-12-07T12:38:51;16.23;;;13.30;;
26086;SDS011;13851;43.434;28.338;2022-12-07T12:47:02;17.90;;;15.05;;
26086;SDS011;13851;43.434;28.338;2022-12-07T12:57:35;18.80;;;15.80;;
26086;SDS011;13851;43.434;28.338;2022-12-07T13:02:53;18.10;;;15.40;;
26086;SDS011;13851;43.434;28.338;2022-12-07T13:05:21;17.83;;;15.85;;
26086;SDS011;13851;43.434;28.338;2022-12-07T13:10:32;21.10;;;17.13;;
26086;SDS011;13851;43.434;28.338;2022-12-07T13:13:02;20.58;;;17.25;;
26086;SDS011;13851;43.434;28.338;2022-12-07T13:15:50;19.90;;;16.83;;
26086;SDS011;13851;43.434;28.338;2022-12-07T13:20:56;20.73;;;18.38;;
26086;SDS011;13851;43.434;28.338;2022-12-07T13:26:20;19.42;;;17.17;;
26086;SDS011;13851;43.434;28.338;2022-12-07T13:29:17;25.00;;;19.65;;
26086;SDS011;13851;43.434;28.338;2022-12-07T13:31:52;21.30;;;19.10;;
26086;SDS011;13851;43.434;28.338;2022-12-07T13:37:00;19.70;;;17.55;;
26086;SDS011;13851;43.434;28.338;2022-12-07T13:39:27;22.90;;;19.90;;
26086;SDS011;13851;43.434;28.338;2022-12-07T13:41:57;24.83;;;19.88;;
26086;SDS011;13851;43.434;28.338;2022-12-07T13:44:26;21.60;;;19.20;;
26086;SDS011;13851;43.434;28.338;2022-12-07T13:49:50;24.55;;;19.98;;
26086;SDS011;13851;43.434;28.338;2022-12-07T13:52:19;22.08;;;19.77;;
26086;SDS011;13851;43.434;28.338;2022-12-07T13:54:48;22.73;;;19.27;;
26086;SDS011;13851;43.434;28.338;2022-12-07T13:57:24;24.90;;;20.48;;
26086;SDS011;13851;43.434;28.338;2022-12-07T13:59:51;24.42;;;20.75;;
26086;SDS011;13851;43.434;28.338;2022-12-07T14:02:22;22.98;;;19.33;;
26086;SDS011;13851;43.434;28.338;2022-12-07T14:04:51;23.77;;;19.83;;
26086;SDS011;13851;43.434;28.338;2022-12-07T14:07:27;21.23;;;17.45;;
26086;SDS011;13851;43.434;28.338;2022-12-07T14:09:58;21.35;;;17.27;;
26086;SDS011;13851;43.434;28.338;2022-12-07T14:12:26;22.45;;;19.25;;
26086;SDS011;13851;43.434;28.338;2022-12-07T14:14:52;23.38;;;20.45;;
26086;SDS011;13851;43.434;28.338;2022-12-07T14:17:20;24.83;;;21.30;;
26086;SDS011;13851;43.434;28.338;2022-12-07T14:20:01;25.83;;;22.40;;
26086;SDS011;13851;43.434;28.338;2022-12-07T14:22:33;25.13;;;21.60;;
26086;SDS011;13851;43.434;28.338;2022-12-07T14:27:39;23.80;;;19.80;;
26086;SDS011;13851;43.434;28.338;2022-12-07T14:30:15;21.13;;;17.73;;
26086;SDS011;13851;43.434;28.338;2022-12-07T14:32:42;24.63;;;21.02;;
26086;SDS011;13851;43.434;28.338;2022-12-07T14:35:15;34.72;;;30.63;;
26086;SDS011;13851;43.434;28.338;2022-12-07T14:37:43;26.02;;;23.33;;
26086;SDS011;13851;43.434;28.338;2022-12-07T14:40:18;25.30;;;21.50;;
26086;SDS011;13851;43.434;28.338;2022-12-07T14:42:46;30.35;;;27.13;;
26086;SDS011;13851;43.434;28.338;2022-12-07T14:45:17;23.58;;;18.85;;
26086;SDS011;13851;43.434;28.338;2022-12-07T14:47:44;27.88;;;22.65;;
26086;SDS011;13851;43.434;28.338;2022-12-07T14:50:14;27.48;;;24.48;;
26086;SDS011;13851;43.434;28.338;2022-12-07T14:52:46;25.17;;;21.38;;
26086;SDS011;13851;43.434;28.338;2022-12-07T14:55:24;27.48;;;22.33;;
26086;SDS011;13851;43.434;28.338;2022-12-07T14:57:53;25.15;;;21.75;;
26086;SDS011;13851;43.434;28.338;2022-12-07T15:00:20;27.38;;;21.90;;
26086;SDS011;13851;43.434;28.338;2022-12-07T15:02:47;24.88;;;20.02;;
26086;SDS011;13851;43.434;28.338;2022-12-07T15:05:14;25.40;;;20.88;;
26086;SDS011;13851;43.434;28.338;2022-12-07T15:07:43;24.55;;;21.92;;
26086;SDS011;13851;43.434;28.338;2022-12-07T15:10:19;23.60;;;19.83;;
26086;SDS011;13851;43.434;28.338;2022-12-07T15:12:49;26.75;;;21.15;;
26086;SDS011;13851;43.434;28.338;2022-12-07T15:15:14;22.52;;;20.10;;
26086;SDS011;13851;43.434;28.338;2022-12-07T15:17:40;23.40;;;20.35;;
26086;SDS011;13851;43.434;28.338;2022-12-07T15:20:11;22.05;;;19.75;;
26086;SDS011;13851;43.434;28.338;2022-12-07T15:22:44;25.08;;;21.88;;
26086;SDS011;13851;43.434;28.338;2022-12-07T15:25:12;23.58;;;18.20;;
26086;SDS011;13851;43.434;28.338;2022-12-07T15:27:39;20.45;;;17.67;;
26086;SDS011;13851;43.434;28.338;2022-12-07T15:30:09;25.23;;;20.02;;
26086;SDS011;13851;43.434;28.338;2022-12-07T15:32:35;19.70;;;17.63;;
26086;SDS011;13851;43.434;28.338;2022-12-07T15:35:00;25.75;;;23.05;;
26086;SDS011;13851;43.434;28.338;2022-12-07T15:37:28;22.88;;;20.58;;
26086;SDS011;13851;43.434;28.338;2022-12-07T15:39:54;24.08;;;20.08;;
26086;SDS011;13851;43.434;28.338;2022-12-07T15:42:19;19.98;;;17.48;;
26086;SDS011;13851;43.434;28.338;2022-12-07T15:44:47;21.00;;;18.23;;
26086;SDS011;13851;43.434;28.338;2022-12-07T15:47:35;22.85;;;16.23;;
26086;SDS011;13851;43.434;28.338;2022-12-07T15:50:09;22.33;;;15.73;;
26086;SDS011;13851;43.434;28.338;2022-12-07T15:52:37;19.75;;;16.20;;
26086;SDS011;13851;43.434;28.338;2022-12-07T15:55:03;19.23;;;16.40;;
26086;SDS011;13851;43.434;28.338;2022-12-07T15:57:32;19.13;;;17.13;;
26086;SDS011;13851;43.434;28.338;2022-12-07T16:00:00;24.58;;;15.43;;
26086;SDS011;13851;43.434;28.338;2022-12-07T16:02:28;18.60;;;15.43;;
26086;SDS011;13851;43.434;28.338;2022-12-07T16:04:54;20.95;;;17.58;;
26086;SDS011;13851;43.434;28.338;2022-12-07T16:07:19;20.23;;;17.70;;
26086;SDS011;13851;43.434;28.338;2022-12-07T16:09:48;21.80;;;17.45;;
26086;SDS011;13851;43.434;28.338;2022-12-07T16:12:14;20.38;;;18.23;;
26086;SDS011;13851;43.434;28.338;2022-12-07T16:14:40;17.50;;;14.85;;
26086;SDS011;13851;43.434;28.338;2022-12-07T16:17:07;20.85;;;16.17;;
26086;SDS011;13851;43.434;28.338;2022-12-07T16:19:33;20.85;;;17.75;;
26086;SDS011;13851;43.434;28.338;2022-12-07T16:22:02;20.55;;;16.75;;
26086;SDS011;13851;43.434;28.338;2022-12-07T16:24:28;19.60;;;17.45;;
26086;SDS011;13851;43.434;28.338;2022-12-07T16:26:54;21.13;;;18.58;;
26086;SDS011;13851;43.434;28.338;2022-12-07T16:29:20;18.52;;;16.08;;
26086;SDS011;13851;43.434;28.338;2022-12-07T16:31:47;27.45;;;19.80;;
26086;SDS011;13851;43.434;28.338;2022-12-07T16:34:14;25.33;;;16.83;;
26086;SDS011;13851;43.434;28.338;2022-12-07T16:36:41;23.92;;;18.05;;
26086;SDS011;13851;43.434;28.338;2022-12-07T16:39:10;24.90;;;19.85;;
26086;SDS011;13851;43.434;28.338;2022-12-07T16:41:36;25.20;;;20.55;;
26086;SDS011;13851;43.434;28.338;2022-12-07T16:44:05;25.05;;;20.33;;
26086;SDS011;13851;43.434;28.338;2022-12-07T16:46:35;25.70;;;21.40;;
26086;SDS011;13851;43.434;28.338;2022-12-07T16:49:03;30.67;;;21.13;;
26086;SDS011;13851;43.434;28.338;2022-12-07T16:51:30;29.92;;;23.52;;
26086;SDS011;13851;43.434;28.338;2022-12-07T16:53:56;45.42;;;31.73;;
26086;SDS011;13851;43.434;28.338;2022-12-07T16:56:22;22.75;;;18.27;;
26086;SDS011;13851;43.434;28.338;2022-12-07T16:58:47;21.70;;;17.63;;
26086;SDS011;13851;43.434;28.338;2022-12-07T17:01:18;20.95;;;15.77;;
26086;SDS011;13851;43.434;28.338;2022-12-07T17:03:48;21.27;;;17.48;;
26086;SDS011;13851;43.434;28.338;2022-12-07T17:06:18;20.95;;;16.95;;